Time;durP1;ratioP1;P1;durP2;ratioP2;P2;SDS_P1;SDS_P2;PMS_P1;PMS_P2;Temp;Humidity;BMP_temperature;BMP_pressure;BME280_temperature;BME280_humidity;BME280_pressure;Samples;Min_cycle;Max_cycle;Signal;HPM_P1;HPM_P2
2021/04/13 00:02:17;;;;;;;4.45;3.72;;;8.00;49.70;;;;;;5012907;28;20823;-86
2021/04/13 00:04:44;;;;;;;3.85;3.55;;;8.00;49.80;;;;;;5013360;28;20465;-83
2021/04/13 00:07:10;;;;;;;4.32;3.60;;;7.90;49.60;;;;;;5028737;28;20387;-85
2021/04/13 00:09:36;;;;;;;4.18;3.67;;;7.90;49.70;;;;;;4995205;28;20042;-86
2021/04/13 00:12:07;;;;;;;3.47;3.13;;;7.80;49.60;;;;;;5009229;28;20054;-87
2021/04/13 00:14:52;;;;;;;3.55;3.25;;;7.80;49.80;;;;;;4992383;28;20045;-83
2021/04/13 00:17:23;;;;;;;3.17;2.95;;;7.70;49.70;;;;;;4991693;28;20142;-84
2021/04/13 00:20:19;;;;;;;3.95;3.65;;;7.70;49.70;;;;;;4991434;28;20057;-84
2021/04/13 00:22:46;;;;;;;3.63;2.95;;;7.70;50.20;;;;;;5009661;28;20027;-90
2021/04/13 00:25:29;;;;;;;4.40;3.25;;;7.70;49.80;;;;;;4993057;28;20042;-90
2021/04/13 00:27:55;;;;;;;3.60;3.30;;;7.60;49.80;;;;;;4976437;28;20046;-89
2021/04/13 00:30:28;;;;;;;4.13;3.20;;;7.60;49.70;;;;;;5009147;28;20587;-85
2021/04/13 00:33:01;;;;;;;4.97;3.67;;;7.60;49.80;;;;;;4991110;28;20037;-88
2021/04/13 00:35:34;;;;;;;5.15;3.83;;;7.50;49.70;;;;;;4991909;28;20041;-84
2021/04/13 00:47:49;;;;;;;3.58;3.25;;;7.40;49.50;;;;;;4965433;28;20035;-89
2021/04/13 00:51:45;;;;;;;4.05;3.20;;;7.30;49.30;;;;;;4948933;28;20049;-84
2021/04/13 00:54:33;;;;;;;4.15;3.47;;;7.30;49.30;;;;;;4951268;28;20058;-86
2021/04/13 00:57:18;;;;;;;3.28;2.97;;;7.30;49.50;;;;;;4951348;28;20043;-85
2021/04/13 00:59:50;;;;;;;3.95;3.65;;;7.20;49.40;;;;;;4952580;28;20528;-87
2021/04/13 01:02:44;;;;;;;4.32;3.92;;;7.20;49.50;;;;;;4924653;28;20049;-88
2021/04/13 01:05:18;;;;;;;3.72;3.28;;;7.20;49.50;;;;;;4954079;28;20046;-87
2021/04/13 01:07:51;;;;;;;4.47;3.97;;;7.10;49.40;;;;;;4969946;28;20055;-88
2021/04/13 01:10:35;;;;;;;4.60;3.83;;;7.10;49.50;;;;;;4958582;28;20189;-88
2021/04/13 01:13:09;;;;;;;3.95;3.65;;;7.10;49.60;;;;;;5000233;28;20328;-89
2021/04/13 01:15:37;;;;;;;4.18;3.63;;;7.10;49.60;;;;;;5029744;28;20479;-88
2021/04/13 01:18:08;;;;;;;4.15;3.63;;;7.10;49.60;;;;;;5030052;28;20080;-88
2021/04/13 01:20:45;;;;;;;3.80;3.50;;;7.00;49.50;;;;;;5029144;28;20035;-83
2021/04/13 01:23:37;;;;;;;3.47;3.17;;;7.00;49.60;;;;;;5027268;28;20568;-85
2021/04/13 01:26:03;;;;;;;3.45;3.15;;;7.00;49.60;;;;;;5010225;28;20516;-84
2021/04/13 01:28:32;;;;;;;3.90;3.55;;;7.00;49.70;;;;;;5026828;28;20048;-84
2021/04/13 01:34:18;;;;;;;4.47;3.60;;;6.90;49.70;;;;;;5010420;28;20124;-83
2021/04/13 01:36:50;;;;;;;4.20;3.47;;;6.90;49.70;;;;;;5019712;28;20033;-84
2021/04/13 01:39:21;;;;;;;4.93;3.58;;;6.90;49.70;;;;;;4995516;28;20033;-84
2021/04/13 01:41:58;;;;;;;3.55;3.25;;;6.90;49.80;;;;;;5027873;28;20663;-82
2021/04/13 01:44:37;;;;;;;7.05;3.55;;;6.90;49.90;;;;;;5010911;28;20060;-83
2021/04/13 01:47:05;;;;;;;4.20;2.80;;;6.90;49.90;;;;;;5011894;28;20385;-84
2021/04/13 01:49:37;;;;;;;3.55;3.25;;;6.90;49.90;;;;;;4993175;28;20034;-85
2021/04/13 01:52:10;;;;;;;3.47;3.13;;;6.90;49.90;;;;;;4976826;28;20112;-84
2021/04/13 01:54:37;;;;;;;3.88;3.40;;;7.00;50.20;;;;;;4993273;28;20030;-84
2021/04/13 01:57:30;;;;;;;3.13;2.83;;;7.00;50.10;;;;;;4976631;28;20045;-84
2021/04/13 02:00:08;;;;;;;4.15;3.13;;;6.90;50.00;;;;;;4976430;28;20030;-85
2021/04/13 02:02:46;;;;;;;4.00;2.95;;;6.90;49.90;;;;;;4994850;28;20523;-83
2021/04/13 02:05:14;;;;;;;3.35;3.05;;;6.90;49.90;;;;;;4995532;28;20061;-84
2021/04/13 02:07:57;;;;;;;4.22;3.28;;;6.90;49.90;;;;;;4978647;28;20065;-83
2021/04/13 02:10:48;;;;;;;3.78;3.25;;;6.90;50.00;;;;;;4999159;28;20049;-85
2021/04/13 02:13:26;;;;;;;3.88;3.15;;;6.80;49.80;;;;;;5032189;28;20040;-85
2021/04/13 02:16:02;;;;;;;3.22;2.95;;;6.90;50.00;;;;;;5014924;28;20030;-86
2021/04/13 02:18:30;;;;;;;5.40;2.83;;;6.80;49.90;;;;;;5015622;28;20033;-86
2021/04/13 02:21:39;;;;;;;3.67;3.30;;;6.70;49.70;;;;;;4999118;28;20029;-88
2021/04/13 02:24:19;;;;;;;4.07;3.53;;;6.70;49.80;;;;;;5015330;28;20040;-84
2021/04/13 02:27:18;;;;;;;3.85;3.55;;;6.70;49.80;;;;;;5015571;28;20119;-89
2021/04/13 02:29:48;;;;;;;3.17;2.88;;;6.60;49.70;;;;;;5015197;28;20041;-85
2021/04/13 02:32:24;;;;;;;3.38;2.95;;;6.60;49.70;;;;;;5015099;28;20373;-86
2021/04/13 02:34:53;;;;;;;3.92;3.30;;;6.60;49.80;;;;;;5014759;28;20665;-88
2021/04/13 02:37:52;;;;;;;3.95;3.55;;;6.60;49.80;;;;;;5014775;28;20026;-87
2021/04/13 02:40:37;;;;;;;3.47;3.17;;;6.50;49.70;;;;;;5014492;28;20036;-86
2021/04/13 02:43:11;;;;;;;3.53;3.22;;;6.50;49.70;;;;;;4997841;28;20025;-86
2021/04/13 02:45:43;;;;;;;;;;;6.40;49.50;;;;;;4998031;28;20029;-86
2021/04/13 02:48:17;;;;;;;4.80;3.85;;;6.40;49.50;;;;;;5014355;28;19913;-83
2021/04/13 02:50:48;;;;;;;;;;;6.40;49.50;;;;;;5015363;28;20044;-84
2021/04/13 02:53:23;;;;;;;6.68;3.38;;;6.30;49.30;;;;;;4998587;28;19980;-87
2021/04/13 02:55:56;;;;;;;4.45;3.70;;;6.30;49.30;;;;;;5015193;28;20045;-88
2021/04/13 02:58:37;;;;;;;3.80;3.38;;;6.30;49.40;;;;;;5014611;28;20500;-84
2021/04/13 03:01:12;;;;;;;3.47;3.17;;;6.20;49.30;;;;;;5014337;28;20069;-87
2021/04/13 03:03:43;;;;;;;4.13;3.60;;;6.20;49.40;;;;;;5015282;28;20080;-88
2021/04/13 03:06:13;;;;;;;3.88;3.33;;;6.10;49.30;;;;;;5015564;28;20116;-86
2021/04/13 03:08:42;;;;;;;4.00;3.42;;;6.10;49.30;;;;;;5014588;28;20041;-86
2021/04/13 03:11:25;;;;;;;3.38;3.08;;;6.10;49.40;;;;;;5031679;28;20111;-87
2021/04/13 03:13:54;;;;;;;6.13;3.63;;;6.10;49.50;;;;;;5014238;28;20033;-84
2021/04/13 03:16:37;;;;;;;3.53;3.20;;;6.00;49.30;;;;;;5014277;28;20112;-87
2021/04/13 03:19:09;;;;;;;3.90;3.60;;;6.00;49.40;;;;;;4997758;28;20026;-86
2021/04/13 03:21:39;;;;;;;4.25;3.53;;;6.00;49.40;;;;;;5003195;28;20029;-86
2021/04/13 03:24:10;;;;;;;4.88;3.92;;;5.90;49.30;;;;;;5007435;28;20057;-87
2021/04/13 03:26:47;;;;;;;4.22;3.83;;;5.90;49.30;;;;;;4979728;28;20026;-88
2021/04/13 03:29:22;;;;;;;5.35;3.55;;;5.90;49.50;;;;;;5009750;28;20061;-86
2021/04/13 03:31:51;;;;;;;4.55;3.22;;;5.80;49.30;;;;;;5017893;28;20025;-87
2021/04/13 03:34:19;;;;;;;4.57;3.63;;;5.80;49.30;;;;;;5035165;28;20045;-87
2021/04/13 03:36:48;;;;;;;9.50;3.95;;;5.80;49.40;;;;;;5035880;28;20025;-86
2021/04/13 03:39:26;;;;;;;4.47;3.58;;;5.80;49.40;;;;;;5017869;28;20480;-85
2021/04/13 03:41:54;;;;;;;4.80;3.95;;;5.70;49.30;;;;;;5018267;28;20045;-88
2021/04/13 03:44:20;;;;;;;4.45;4.05;;;5.70;49.30;;;;;;5018097;28;20021;-89
2021/04/13 03:46:47;;;;;;;3.78;3.33;;;5.70;49.30;;;;;;5036135;28;20037;-89
2021/04/13 03:49:29;;;;;;;4.30;3.67;;;5.70;49.40;;;;;;5036013;28;20404;-86
2021/04/13 03:52:00;;;;;;;6.22;4.07;;;5.60;49.20;;;;;;5017642;28;20033;-85
2021/04/13 03:54:36;;;;;;;6.28;4.13;;;5.60;49.20;;;;;;5017184;28;20477;-83
2021/04/13 03:57:04;;;;;;;4.40;3.97;;;5.60;49.40;;;;;;5034788;28;20400;-83
2021/04/13 03:59:36;;;;;;;6.55;4.22;;;5.60;49.30;;;;;;5033561;28;20034;-83
2021/04/13 04:02:05;;;;;;;4.68;3.72;;;5.50;49.20;;;;;;5016569;28;20025;-85
2021/04/13 04:04:38;;;;;;;5.45;3.63;;;5.50;49.20;;;;;;5016709;28;20040;-84
2021/04/13 04:07:38;;;;;;;6.95;3.55;;;5.50;49.30;;;;;;5013926;28;20033;-85
2021/04/13 04:10:44;;;;;;;4.97;3.78;;;5.40;49.10;;;;;;4993862;28;20092;-85
2021/04/13 04:13:35;;;;;;;4.40;3.05;;;5.40;49.10;;;;;;5016888;28;20618;-85
2021/04/13 04:16:28;;;;;;;3.78;3.28;;;5.40;49.10;;;;;;5035125;28;20033;-87
2021/04/13 04:18:56;;;;;;;5.30;4.05;;;5.40;49.10;;;;;;5000862;28;20067;-86
2021/04/13 04:21:52;;;;;;;6.60;3.95;;;5.30;48.90;;;;;;4984924;28;20057;-87
2021/04/13 04:24:43;;;;;;;4.10;3.70;;;5.30;49.00;;;;;;5012718;28;20095;-86
2021/04/13 04:27:15;;;;;;;3.97;3.58;;;5.30;49.00;;;;;;5017252;28;20124;-83
2021/04/13 04:29:49;;;;;;;5.53;4.25;;;5.30;49.10;;;;;;4997234;28;20077;-84
2021/04/13 04:32:38;;;;;;;3.90;3.03;;;5.20;49.60;;;;;;5031959;28;20067;-83
2021/04/13 04:35:07;;;;;;;4.43;3.78;;;5.20;49.10;;;;;;5017041;28;20412;-85
2021/04/13 04:37:35;;;;;;;6.50;4.55;;;5.20;49.10;;;;;;5000411;28;20025;-84
2021/04/13 04:40:25;;;;;;;5.45;4.75;;;5.20;49.20;;;;;;5012669;28;20065;-84
2021/04/13 04:42:59;;;;;;;5.57;3.97;;;5.20;49.30;;;;;;4991169;28;20034;-85
2021/04/13 04:45:44;;;;;;;6.43;4.05;;;5.20;49.20;;;;;;5031609;28;20033;-85
2021/04/13 04:48:22;;;;;;;5.82;4.28;;;5.20;49.30;;;;;;4988304;28;20125;-87
2021/04/13 04:50:50;;;;;;;5.10;4.50;;;5.30;49.40;;;;;;4992788;28;20041;-84
2021/04/13 04:53:20;;;;;;;4.97;4.47;;;5.20;49.20;;;;;;4992737;28;20428;-83
2021/04/13 04:55:54;;;;;;;6.20;4.38;;;5.20;49.20;;;;;;5009096;28;20056;-84
2021/04/13 04:58:22;;;;;;;;;;;5.30;49.40;;;;;;5006847;28;20075;-85
2021/04/13 05:00:51;;;;;;;4.32;3.92;;;5.30;49.30;;;;;;5028303;28;19939;-85
2021/04/13 05:03:18;;;;;;;6.13;4.45;;;5.30;49.10;;;;;;5018897;28;20034;-83
2021/04/13 05:05:46;;;;;;;6.90;4.68;;;5.30;49.20;;;;;;4992003;28;20072;-83
2021/04/13 05:08:12;;;;;;;6.03;4.57;;;5.30;49.20;;;;;;5011768;28;20041;-86
2021/04/13 05:10:40;;;;;;;4.88;4.38;;;5.40;49.40;;;;;;5012414;28;20041;-88
2021/04/13 05:13:08;;;;;;;5.72;4.57;;;5.40;49.40;;;;;;5011678;28;20037;-85
2021/04/13 05:15:36;;;;;;;4.10;3.70;;;5.40;49.40;;;;;;5011084;28;20025;-85
2021/04/13 05:18:04;;;;;;;5.18;4.40;;;5.40;49.30;;;;;;5010944;28;20026;-87
2021/04/13 05:20:43;;;;;;;5.55;4.75;;;5.40;49.40;;;;;;4994833;28;20045;-86
2021/04/13 05:23:10;;;;;;;6.47;4.90;;;5.40;49.40;;;;;;5011523;28;20021;-86
2021/04/13 05:25:36;;;;;;;4.90;4.15;;;5.50;49.60;;;;;;5014081;28;20034;-82
2021/04/13 05:28:03;;;;;;;5.38;4.50;;;5.40;49.30;;;;;;4997095;28;20607;-83
2021/04/13 05:31:19;;;;;;;5.13;4.45;;;5.50;49.50;;;;;;5013527;28;20025;-89
2021/04/13 05:34:03;;;;;;;7.85;4.45;;;5.50;49.70;;;;;;5026974;28;20022;-87
2021/04/13 05:36:29;;;;;;;4.85;4.05;;;5.50;49.60;;;;;;4992628;28;20026;-85
2021/04/13 05:38:55;;;;;;;5.75;5.13;;;5.50;49.80;;;;;;4987755;28;20040;-82
2021/04/13 05:41:21;;;;;;;8.35;4.97;;;5.50;50.20;;;;;;4993507;28;20022;-82
2021/04/13 05:43:48;;;;;;;6.38;5.45;;;5.60;50.50;;;;;;4992410;28;20039;-86
2021/04/13 05:46:16;;;;;;;6.03;5.28;;;5.70;51.10;;;;;;4994376;28;20030;-83
2021/04/13 05:48:42;;;;;;;6.18;5.00;;;5.80;51.70;;;;;;4990118;28;20038;-84
2021/04/13 05:51:09;;;;;;;8.02;5.68;;;5.90;51.90;;;;;;5007092;28;20117;-84
2021/04/13 05:53:35;;;;;;;5.35;4.85;;;6.00;52.00;;;;;;5024613;28;20102;-83
2021/04/13 05:56:01;;;;;;;8.02;5.13;;;6.00;52.50;;;;;;5031305;28;20025;-83
2021/04/13 05:58:41;;;;;;;6.65;5.40;;;6.10;52.10;;;;;;5022632;28;20399;-85
2021/04/13 06:01:09;;;;;;;5.88;5.03;;;6.10;52.20;;;;;;5028654;28;20033;-82
2021/04/13 06:03:35;;;;;;;7.72;4.85;;;6.10;52.10;;;;;;5010845;28;20088;-80
2021/04/13 06:06:02;;;;;;;7.68;5.22;;;6.10;52.20;;;;;;5010906;28;20115;-84
2021/04/13 06:08:30;;;;;;;7.63;5.82;;;6.10;52.50;;;;;;5009300;28;20432;-82
2021/04/13 06:10:59;;;;;;;5.75;4.90;;;6.10;52.70;;;;;;5009160;28;20079;-82
2021/04/13 06:13:26;;;;;;;7.20;4.95;;;6.20;52.90;;;;;;5009420;28;20029;-85
2021/04/13 06:15:54;;;;;;;7.45;5.60;;;6.20;53.50;;;;;;5001170;28;20113;-82
2021/04/13 06:18:21;;;;;;;6.13;5.40;;;6.30;53.20;;;;;;4995158;28;20284;-82
2021/04/13 06:20:47;;;;;;;6.63;5.88;;;6.30;53.20;;;;;;5005339;28;20481;-82
2021/04/13 06:23:14;;;;;;;7.47;5.43;;;6.30;53.20;;;;;;5017776;28;20099;-82
2021/04/13 06:25:40;;;;;;;7.60;5.57;;;6.40;53.40;;;;;;5027212;28;20117;-85
2021/04/13 06:28:06;;;;;;;6.57;5.85;;;6.40;53.50;;;;;;5025521;28;20033;-83
2021/04/13 06:30:33;;;;;;;9.38;5.35;;;6.50;53.60;;;;;;5009480;28;20437;-83
2021/04/13 06:33:00;;;;;;;6.40;5.57;;;6.60;53.80;;;;;;5008444;28;20112;-83
2021/04/13 06:35:28;;;;;;;9.35;6.05;;;6.70;53.90;;;;;;4992126;28;20040;-82
2021/04/13 06:37:57;;;;;;;6.25;5.57;;;6.80;54.00;;;;;;5010468;28;20037;-81
2021/04/13 06:40:49;;;;;;;5.97;5.38;;;6.80;54.00;;;;;;4994038;28;20093;-82
2021/04/13 06:43:52;;;;;;;9.68;6.32;;;6.90;54.20;;;;;;5028703;28;20451;-84
2021/04/13 06:46:41;;;;;;;8.63;5.68;;;7.10;54.50;;;;;;4995404;28;20033;-81
2021/04/13 06:49:32;;;;;;;6.93;5.82;;;7.20;54.50;;;;;;5024450;28;20041;-81
2021/04/13 06:52:29;;;;;;;6.68;6.05;;;7.40;54.80;;;;;;5022410;28;20125;-83
2021/04/13 06:55:08;;;;;;;6.50;5.90;;;7.50;54.80;;;;;;4990617;28;20040;-83
2021/04/13 06:57:52;;;;;;;7.10;6.47;;;7.70;55.10;;;;;;4975846;28;20287;-86
2021/04/13 07:00:29;;;;;;;7.93;6.35;;;7.90;55.30;;;;;;5025940;28;20542;-84
2021/04/13 07:03:18;;;;;;;6.68;5.95;;;8.10;55.60;;;;;;5025051;28;20418;-83
2021/04/13 07:06:10;;;;;;;8.88;6.90;;;8.20;55.60;;;;;;5027409;28;20057;-83
2021/04/13 07:09:03;;;;;;;7.80;6.07;;;8.40;56.30;;;;;;5011431;28;20186;-82
2021/04/13 07:11:37;;;;;;;9.43;6.70;;;8.60;55.80;;;;;;4994282;28;20046;-84
2021/04/13 07:14:15;;;;;;;7.38;5.70;;;8.80;55.90;;;;;;5027225;28;20034;-84
2021/04/13 07:16:56;;;;;;;8.60;6.57;;;9.00;56.10;;;;;;5028919;28;20056;-83
2021/04/13 07:19:36;;;;;;;8.05;6.15;;;9.20;56.30;;;;;;5028178;28;20037;-85
2021/04/13 07:22:02;;;;;;;10.18;7.55;;;9.30;56.20;;;;;;5027367;28;20021;-81
2021/04/13 07:24:48;;;;;;;10.98;6.75;;;9.50;56.20;;;;;;5009612;28;20479;-81
2021/04/13 07:27:32;;;;;;;7.57;6.88;;;9.70;56.30;;;;;;5009418;28;20033;-83
2021/04/13 07:30:08;;;;;;;8.57;7.68;;;9.80;56.10;;;;;;4973369;28;20041;-83
2021/04/13 07:32:36;;;;;;;8.20;7.47;;;9.90;56.00;;;;;;5010335;28;20032;-86
2021/04/13 07:35:06;;;;;;;8.25;6.75;;;10.00;55.90;;;;;;5027654;28;20041;-88
2021/04/13 07:37:36;;;;;;;7.85;7.10;;;10.10;55.90;;;;;;4994642;28;20060;-87
2021/04/13 07:40:10;;;;;;;8.93;7.63;;;10.20;55.90;;;;;;4993614;28;20068;-82
2021/04/13 07:42:39;;;;;;;8.20;7.32;;;10.20;55.80;;;;;;5011496;28;20596;-85
2021/04/13 07:45:23;;;;;;;9.20;8.00;;;10.30;55.80;;;;;;4993518;28;20036;-85
2021/04/13 07:47:53;;;;;;;8.50;7.68;;;10.40;55.80;;;;;;4993842;28;20045;-85
2021/04/13 07:50:34;;;;;;;8.07;7.35;;;10.60;56.00;;;;;;5011254;28;20034;-88
2021/04/13 07:53:22;;;;;;;9.18;7.50;;;10.80;56.20;;;;;;5030251;28;20021;-82
2021/04/13 07:55:55;;;;;;;8.50;7.45;;;10.90;56.10;;;;;;4995318;28;20030;-89
2021/04/13 07:58:48;;;;;;;7.50;6.70;;;11.20;56.20;;;;;;5008793;28;20029;-85
2021/04/13 08:01:15;;;;;;;8.63;6.93;;;11.30;55.90;;;;;;4993907;28;20118;-82
2021/04/13 08:03:42;;;;;;;9.27;7.65;;;11.50;55.80;;;;;;5009182;28;20029;-86
2021/04/13 08:06:26;;;;;;;9.30;7.22;;;11.70;55.80;;;;;;5006872;28;20096;-84
2021/04/13 08:09:23;;;;;;;7.75;6.95;;;11.90;55.60;;;;;;5010417;28;20052;-83
2021/04/13 08:12:14;;;;;;;7.43;6.72;;;12.00;55.20;;;;;;5010277;28;20053;-82
2021/04/13 08:14:44;;;;;;;7.38;6.60;;;12.20;55.10;;;;;;5009150;28;20466;-82
2021/04/13 08:17:18;;;;;;;7.82;6.90;;;12.30;55.10;;;;;;5008046;28;20026;-87
2021/04/13 08:19:45;;;;;;;;;;;12.30;54.50;;;;;;5013090;28;20034;-82
2021/04/13 08:22:17;;;;;;;7.72;6.93;;;12.40;54.60;;;;;;4995328;28;19959;-82
2021/04/13 08:24:46;;;;;;;9.32;6.72;;;12.30;54.10;;;;;;5010934;28;20057;-80
2021/04/13 08:27:33;;;;;;;9.00;6.68;;;12.30;53.90;;;;;;5011703;28;20060;-81
2021/04/13 08:30:34;;;;;;;8.40;7.20;;;12.20;53.70;;;;;;5011136;28;20096;-82
2021/04/13 08:33:09;;;;;;;7.65;6.88;;;12.20;53.60;;;;;;4960779;28;20457;-83
2021/04/13 08:35:53;;;;;;;7.18;6.38;;;12.10;53.40;;;;;;5029206;28;20021;-83
2021/04/13 08:38:44;;;;;;;7.20;6.50;;;12.10;53.30;;;;;;5032862;28;20060;-83
2021/04/13 08:41:11;;;;;;;7.82;6.90;;;12.00;53.10;;;;;;5014099;28;20030;-82
2021/04/13 08:43:51;;;;;;;7.13;6.53;;;12.00;53.20;;;;;;5030950;28;20040;-84
2021/04/13 08:46:27;;;;;;;7.65;6.43;;;12.10;53.20;;;;;;5013559;28;20041;-82
2021/04/13 08:49:10;;;;;;;8.60;6.55;;;12.10;53.10;;;;;;5014710;28;20575;-85
2021/04/13 08:51:45;;;;;;;7.80;6.53;;;12.10;53.00;;;;;;5012651;28;20033;-82
2021/04/13 08:54:53;;;;;;;7.63;6.82;;;12.20;53.10;;;;;;5030956;28;20041;-87
2021/04/13 08:57:28;;;;;;;8.05;6.80;;;12.30;53.10;;;;;;4997328;28;20038;-88
2021/04/13 08:59:56;;;;;;;7.93;6.70;;;12.40;53.20;;;;;;5030246;28;20032;-82
2021/04/13 09:02:38;;;;;;;7.88;6.20;;;12.50;53.20;;;;;;5013180;28;20106;-84
2021/04/13 09:05:25;;;;;;;7.85;7.05;;;12.70;53.30;;;;;;5025961;28;20095;-84
2021/04/13 09:08:04;;;;;;;8.07;6.22;;;12.80;53.30;;;;;;5022336;28;20477;-86
2021/04/13 09:10:33;;;;;;;6.50;5.90;;;12.90;53.20;;;;;;5031755;28;20042;-91
2021/04/13 09:13:02;;;;;;;7.25;6.55;;;12.90;53.10;;;;;;5020476;28;20034;-85
2021/04/13 09:15:29;;;;;;;7.00;6.40;;;13.00;53.10;;;;;;5028844;28;20033;-85
2021/04/13 09:18:17;;;;;;;6.90;6.20;;;13.10;53.10;;;;;;5027999;28;20045;-88
2021/04/13 09:20:48;;;;;;;7.38;6.45;;;13.20;53.20;;;;;;5011717;28;20033;-82
2021/04/13 09:23:26;;;;;;;6.00;5.50;;;13.20;53.00;;;;;;5022675;28;20428;-83
2021/04/13 09:25:54;;;;;;;7.15;6.45;;;13.30;53.00;;;;;;5032471;28;20059;-87
2021/04/13 09:28:23;;;;;;;7.57;6.90;;;13.30;52.90;;;;;;5032979;28;20045;-86
2021/04/13 09:31:10;;;;;;;6.53;5.93;;;13.30;52.80;;;;;;4998235;28;20029;-86
2021/04/13 09:33:41;;;;;;;8.35;6.68;;;13.40;52.90;;;;;;5012345;28;20030;-85
2021/04/13 09:36:16;;;;;;;7.15;6.50;;;13.40;52.80;;;;;;5013349;28;20132;-87
2021/04/13 09:39:20;;;;;;;6.68;6.07;;;13.40;52.70;;;;;;5012797;28;20029;-83
2021/04/13 09:42:16;;;;;;;7.40;6.28;;;13.40;52.70;;;;;;4992092;28;20038;-86
2021/04/13 09:45:06;;;;;;;6.60;5.90;;;13.40;52.70;;;;;;5028406;28;20065;-86
2021/04/13 09:48:15;;;;;;;6.40;5.80;;;13.40;52.70;;;;;;5012919;28;20485;-85
2021/04/13 09:51:17;;;;;;;7.00;6.07;;;13.40;52.70;;;;;;5011198;28;20032;-83
2021/04/13 09:53:58;;;;;;;7.35;6.65;;;13.40;52.70;;;;;;5011842;28;20033;-87
2021/04/13 09:56:55;;;;;;;7.07;6.40;;;13.50;52.80;;;;;;5030960;28;20507;-85
2021/04/13 09:59:33;;;;;;;7.18;6.10;;;13.60;52.80;;;;;;5025717;28;20148;-83
2021/04/13 10:02:26;;;;;;;7.30;6.28;;;13.60;52.70;;;;;;5012921;28;20030;-84
2021/04/13 10:05:05;;;;;;;7.65;6.07;;;13.70;52.70;;;;;;5029053;28;20029;-83
2021/04/13 10:07:51;;;;;;;6.13;5.28;;;13.80;52.80;;;;;;5029627;28;20577;-83
2021/04/13 10:10:24;;;;;;;6.07;5.55;;;13.90;52.90;;;;;;4996924;28;20068;-85
2021/04/13 10:13:26;;;;;;;7.43;6.65;;;14.00;52.90;;;;;;5012758;28;20044;-84
2021/04/13 10:15:55;;;;;;;6.60;6.00;;;14.20;53.00;;;;;;4996585;28;20075;-83
2021/04/13 10:18:25;;;;;;;7.60;5.95;;;14.30;53.00;;;;;;5013654;28;20100;-85
2021/04/13 10:21:10;;;;;;;6.60;5.80;;;14.50;53.20;;;;;;5015540;28;20523;-83
2021/04/13 10:24:25;;;;;;;6.57;5.85;;;14.60;53.10;;;;;;4997476;28;20513;-84
2021/04/13 10:26:54;;;;;;;6.38;5.80;;;14.80;53.20;;;;;;4968665;28;20498;-83
2021/04/13 10:29:51;;;;;;;6.38;5.57;;;14.90;53.20;;;;;;4987843;28;20413;-84
2021/04/13 10:32:58;;;;;;;7.55;6.47;;;15.10;53.20;;;;;;4997079;28;20208;-82
2021/04/13 10:35:24;;;;;;;6.25;5.15;;;15.30;53.30;;;;;;5012750;28;20048;-84
2021/04/13 10:38:34;;;;;;;6.28;5.65;;;15.40;53.40;;;;;;4996225;28;20033;-83
2021/04/13 10:41:35;;;;;;;5.75;5.25;;;15.50;53.20;;;;;;5005003;28;20025;-85
2021/04/13 10:44:36;;;;;;;6.57;5.85;;;15.60;53.20;;;;;;5004906;28;20056;-83
2021/04/13 10:47:47;;;;;;;6.60;5.78;;;15.70;53.20;;;;;;5008161;28;20036;-82
2021/04/13 10:50:17;;;;;;;5.85;5.05;;;15.80;53.30;;;;;;5045095;28;20063;-80
2021/04/13 10:53:20;;;;;;;6.40;5.07;;;15.90;53.40;;;;;;5028105;28;20416;-80
2021/04/13 10:55:56;;;;;;;6.55;5.30;;;16.00;53.30;;;;;;5027045;28;20088;-84
2021/04/13 10:58:25;;;;;;;10.15;7.50;;;16.10;53.40;;;;;;4989688;28;20137;-93
2021/04/13 11:01:19;;;;;;;9.68;6.47;;;16.10;52.60;;;;;;5012229;28;20480;-83
2021/04/13 11:04:23;;;;;;;9.90;7.43;;;16.00;51.30;;;;;;5003594;28;20492;-84
2021/04/13 11:07:07;;;;;;;14.77;9.18;;;15.90;51.30;;;;;;5028843;28;20444;-85
2021/04/13 11:09:54;;;;;;;10.40;8.60;;;15.90;51.60;;;;;;5011320;28;20484;-83
2021/04/13 11:12:48;;;;;;;13.98;8.70;;;15.90;51.70;;;;;;4994959;28;20033;-84
2021/04/13 11:15:33;;;;;;;9.75;7.20;;;16.00;51.70;;;;;;5010689;28;20030;-84
2021/04/13 11:18:19;;;;;;;16.73;8.82;;;16.20;52.00;;;;;;5011389;28;20037;-86
2021/04/13 11:21:03;;;;;;;10.68;7.80;;;16.30;52.00;;;;;;5012370;28;20060;-88
2021/04/13 11:23:58;;;;;;;;;;;16.40;52.00;;;;;;4995801;28;20033;-82
2021/04/13 11:26:54;;;;;;;11.13;8.00;;;16.60;52.40;;;;;;5020807;28;19916;-82
2021/04/13 11:29:38;;;;;;;8.90;7.68;;;16.70;52.20;;;;;;5023255;28;20079;-81
2021/04/13 11:32:42;;;;;;;10.20;7.67;;;16.80;52.20;;;;;;5011117;28;20030;-83
2021/04/13 11:35:27;;;;;;;11.05;7.53;;;16.90;52.20;;;;;;4995602;28;20036;-83
2021/04/13 11:38:20;;;;;;;8.10;7.25;;;17.00;52.10;;;;;;5031454;28;20447;-83
2021/04/13 11:40:51;;;;;;;8.73;7.50;;;17.10;52.10;;;;;;4993986;28;20040;-83
2021/04/13 11:43:22;;;;;;;8.07;7.28;;;17.20;52.30;;;;;;5011630;28;20034;-84
2021/04/13 11:46:16;;;;;;;7.25;6.60;;;17.20;52.20;;;;;;5011824;28;20183;-84
2021/04/13 11:48:51;;;;;;;7.43;6.47;;;17.30;52.10;;;;;;5014433;28;20037;-83
2021/04/13 11:51:35;;;;;;;10.70;6.60;;;17.40;52.30;;;;;;4999502;28;20084;-83
2021/04/13 11:54:39;;;;;;;10.25;6.43;;;17.50;52.20;;;;;;5014646;28;20040;-84
2021/04/13 11:57:18;;;;;;;6.28;5.30;;;17.60;52.30;;;;;;5013812;28;20029;-83
2021/04/13 12:00:10;;;;;;;6.43;5.80;;;17.70;52.40;;;;;;5013086;28;20038;-84
2021/04/13 12:02:43;;;;;;;10.77;6.63;;;17.70;52.20;;;;;;4997998;28;20052;-80
2021/04/13 12:05:39;;;;;;;8.25;6.40;;;17.80;52.40;;;;;;4998396;28;20034;-84
2021/04/13 12:08:07;;;;;;;6.30;5.70;;;17.80;52.30;;;;;;5014420;28;20044;-82
2021/04/13 12:10:33;;;;;;;5.93;5.32;;;17.90;52.40;;;;;;5014494;28;20524;-82
2021/04/13 12:13:03;;;;;;;7.85;6.20;;;18.00;52.50;;;;;;5031597;28;20053;-82
2021/04/13 12:15:38;;;;;;;6.65;5.25;;;18.00;52.30;;;;;;5030481;28;20036;-81
2021/04/13 12:18:36;;;;;;;5.95;5.35;;;18.00;52.20;;;;;;5029948;28;20049;-82
2021/04/13 12:21:21;;;;;;;6.28;5.68;;;18.10;52.30;;;;;;5031784;28;20072;-83
2021/04/13 12:23:53;;;;;;;5.93;4.80;;;18.20;52.30;;;;;;5031110;28;20060;-84
2021/04/13 12:26:40;;;;;;;7.18;5.85;;;18.20;52.90;;;;;;5013190;28;20120;-83
2021/04/13 12:29:29;;;;;;;6.25;4.78;;;18.30;52.30;;;;;;5013183;28;20048;-83
2021/04/13 12:32:11;;;;;;;5.38;4.88;;;18.40;52.50;;;;;;5029263;28;20041;-84
2021/04/13 12:34:58;;;;;;;7.15;5.53;;;18.50;52.50;;;;;;4994946;28;20121;-82
2021/04/13 12:37:46;;;;;;;6.15;4.65;;;18.60;52.50;;;;;;4995687;28;20447;-81
2021/04/13 12:40:15;;;;;;;6.47;4.93;;;18.70;52.60;;;;;;5013947;28;20065;-83
2021/04/13 12:43:04;;;;;;;5.45;4.70;;;18.80;52.70;;;;;;4996818;28;20033;-83
2021/04/13 12:45:41;;;;;;;6.47;4.43;;;18.90;52.60;;;;;;4996979;28;20037;-83
2021/04/13 12:48:22;;;;;;;6.18;4.72;;;19.00;52.70;;;;;;5012703;28;20037;-82
2021/04/13 12:51:01;;;;;;;5.30;4.43;;;19.10;52.70;;;;;;4996990;28;20034;-83
2021/04/13 12:53:28;;;;;;;5.72;4.35;;;19.30;53.50;;;;;;4995822;28;20043;-82
2021/04/13 12:56:14;;;;;;;4.95;4.55;;;19.30;52.80;;;;;;4999539;28;20133;-82
2021/04/13 12:58:43;;;;;;;4.65;4.25;;;19.40;52.70;;;;;;5011252;28;20120;-80
2021/04/13 13:01:19;;;;;;;4.40;3.95;;;19.50;52.80;;;;;;5011368;28;20033;-80
2021/04/13 13:03:46;;;;;;;7.05;4.22;;;19.50;52.60;;;;;;5012579;28;20241;-82
2021/04/13 13:06:29;;;;;;;4.97;4.10;;;19.60;52.80;;;;;;5011966;28;20032;-83
2021/04/13 13:09:05;;;;;;;4.53;4.03;;;19.70;52.70;;;;;;5010978;28;20118;-83
2021/04/13 13:11:32;;;;;;;5.85;4.28;;;19.80;52.80;;;;;;4986955;28;20374;-84
2021/04/13 13:14:01;;;;;;;6.55;3.95;;;20.00;53.00;;;;;;5018964;28;20034;-81
2021/04/13 13:16:28;;;;;;;4.32;3.92;;;20.10;52.90;;;;;;5009981;28;20500;-82
2021/04/13 13:18:57;;;;;;;4.60;3.78;;;20.20;53.00;;;;;;5009931;28;20025;-82
2021/04/13 13:21:30;;;;;;;4.93;3.92;;;20.20;52.80;;;;;;4993961;28;20179;-82
2021/04/13 13:23:59;;;;;;;4.45;3.50;;;20.20;52.60;;;;;;5002811;28;20018;-82
2021/04/13 13:26:25;;;;;;;3.75;3.45;;;20.20;52.70;;;;;;4995028;28;20329;-82
2021/04/13 13:28:50;;;;;;;4.20;3.80;;;20.20;52.60;;;;;;5008115;28;20129;-83
2021/04/13 13:31:18;;;;;;;4.93;4.43;;;20.20;52.50;;;;;;4991647;28;20113;-82
2021/04/13 13:33:47;;;;;;;5.25;3.47;;;20.30;52.70;;;;;;4987510;28;20504;-83
2021/04/13 13:36:15;;;;;;;4.97;3.53;;;20.30;52.50;;;;;;4996916;28;20546;-82
2021/04/13 13:38:45;;;;;;;3.50;3.20;;;20.40;52.60;;;;;;5011356;28;20036;-82
2021/04/13 13:41:15;;;;;;;5.13;3.20;;;20.40;52.40;;;;;;5011440;28;20030;-83
2021/04/13 13:43:42;;;;;;;4.35;3.95;;;20.50;52.50;;;;;;5010975;28;20044;-81
2021/04/13 13:46:09;;;;;;;4.88;3.58;;;20.50;52.40;;;;;;5009500;28;20025;-81
2021/04/13 13:48:36;;;;;;;3.58;3.28;;;20.50;52.30;;;;;;5026145;28;20455;-81
2021/04/13 13:51:04;;;;;;;4.50;2.97;;;20.50;52.30;;;;;;5020258;28;20025;-83
2021/04/13 13:53:31;;;;;;;4.55;3.47;;;20.50;52.20;;;;;;5038243;28;20388;-84
2021/04/13 13:56:04;;;;;;;4.97;3.03;;;20.50;52.20;;;;;;5027781;28;20026;-85
2021/04/13 13:58:34;;;;;;;3.28;2.97;;;20.50;52.10;;;;;;5023028;28;20459;-84
2021/04/13 14:01:03;;;;;;;4.15;2.92;;;20.50;52.10;;;;;;5010079;28;20140;-83
2021/04/13 14:03:31;;;;;;;3.40;3.05;;;20.50;52.10;;;;;;4995303;28;20034;-82